Harwood Heights, Illinois
Current Conditions -  °F | °C
As of 3:51 AM on Tuesday 27 Jan 2015 (Local Time) from KORD Reporting Station
Overcast Overcast  
Wind Chill: 27°   Ceiling: 2000
Heat Index: 27°   Visibility: 7mi
Dew Point: 24°   Wind: 3mph
Humidity: 89%   Direction: 350°N
Pressure: 29.97"   Gusts: NA
Location:  41.97°N, 87.81°W
Report Text: KORD 270951Z 35003KT 7SM FEW013 OVC020 M03/M04 A2997 RMK AO2 SLP157 T10281044
Loading
Personal Weather Stations






























Interactive Weather Map New forecast layout! Learn more

10-Day Weather Forecast

Advertisements
Track Severe Weather on mobile